map of LNS home
LNS - Airport
Location
City:  Lancaster, Pennsylvania, United States
ICAO:KLNS
IATA:LNS
FAA LID:LNS

Details
Type:Airport (Part 139 Class II)
Use:Public/Civil
Latitude:4007'20"N (40.122361)
Longitude:7617'40"W (-76.294360)
Datum:WGS 1984
Elevation:402 ft (123 m)
Variation:11.42W (WMM2015v2 magnetic declination)
0.03 annual change
Runways:2
Longest:6933 × 150 ft (2113 × 45.5 m), paved

Time
Time Zone:UTC-5 (DST-4)
Local Time:

Weather
METAR:KLNS 041353Z 00000KT 2 1/2SM BR CLR 01/M01 A3011 RMK AO2 SLP201 T00061011
TAF:KLNS 041150Z 0412/0512 VRB03KT 2SM BR SKC
TEMPO 0412/0414 1SM BR BKN005
FM041600 VRB03KT P6SM SKC
FM050300 VRB03KT P6SM OVC060

Related Locations
Nearby:
Farthest:YAUG: 11693 mi / 18818 km
Augusta [Augusta Airport], WA, AU

Find:

   beyond  
but within

Other Information
Maps:
Delays:
NOTAMs:
Links:
Sources:

  
  • flag of United States
  • flag of Pennsylvania
  

Airport Diagram

Airport diagram for LNS

Airport diagram PDF from FAA

Sectional Chart

Flight Planning
at skyvector.com

Satellite Image

Google Maps Satellite view

 

Copyright © 2004-2019 Karl L. Swartz. All rights reserved.
The Great Circle Mapper name and logo are trademarks of the Great Circle Mapper.
All other trademarks mentioned herein belong to their respective owners.
Please see credits for attibutions and further copyright information.

  Follow gcmap on Facebook Follow gcmap on Twitter GCmap on LinkedIn

hCard Microformat

Geo Microformat